sensor_id;sensor_type;location;lat;lon;timestamp;P1;durP1;ratioP1;P2;durP2;ratioP2
75651;SDS011;64248;43.602;39.724;2022-12-10T00:01:04;12.27;;;5.20;;
75651;SDS011;64248;43.602;39.724;2022-12-10T00:03:38;10.45;;;4.88;;
75651;SDS011;64248;43.602;39.724;2022-12-10T00:06:05;10.60;;;5.45;;
75651;SDS011;64248;43.602;39.724;2022-12-10T00:08:33;12.15;;;4.97;;
75651;SDS011;64248;43.602;39.724;2022-12-10T00:11:00;11.23;;;4.47;;
75651;SDS011;64248;43.602;39.724;2022-12-10T00:13:28;10.27;;;4.70;;
75651;SDS011;64248;43.602;39.724;2022-12-10T00:15:54;10.15;;;4.97;;
75651;SDS011;64248;43.602;39.724;2022-12-10T00:18:20;9.20;;;4.72;;
75651;SDS011;64248;43.602;39.724;2022-12-10T00:20:48;9.98;;;5.25;;
75651;SDS011;64248;43.602;39.724;2022-12-10T00:23:14;9.95;;;4.63;;
75651;SDS011;64248;43.602;39.724;2022-12-10T00:25:39;8.45;;;4.50;;
75651;SDS011;64248;43.602;39.724;2022-12-10T00:28:05;10.73;;;4.85;;
75651;SDS011;64248;43.602;39.724;2022-12-10T00:30:32;12.55;;;5.38;;
75651;SDS011;64248;43.602;39.724;2022-12-10T00:33:03;13.20;;;4.75;;
75651;SDS011;64248;43.602;39.724;2022-12-10T00:35:29;8.63;;;4.43;;
75651;SDS011;64248;43.602;39.724;2022-12-10T00:37:55;10.23;;;5.07;;
75651;SDS011;64248;43.602;39.724;2022-12-10T00:40:22;7.90;;;4.40;;
75651;SDS011;64248;43.602;39.724;2022-12-10T00:42:48;9.88;;;4.50;;
75651;SDS011;64248;43.602;39.724;2022-12-10T00:45:14;9.70;;;4.38;;
75651;SDS011;64248;43.602;39.724;2022-12-10T00:47:40;9.98;;;4.53;;
75651;SDS011;64248;43.602;39.724;2022-12-10T00:50:06;9.30;;;4.18;;
75651;SDS011;64248;43.602;39.724;2022-12-10T00:52:32;9.48;;;5.03;;
75651;SDS011;64248;43.602;39.724;2022-12-10T00:54:58;10.45;;;4.70;;
75651;SDS011;64248;43.602;39.724;2022-12-10T00:57:24;9.68;;;5.03;;
75651;SDS011;64248;43.602;39.724;2022-12-10T00:59:49;8.13;;;4.18;;
75651;SDS011;64248;43.602;39.724;2022-12-10T01:02:16;9.70;;;4.45;;
75651;SDS011;64248;43.602;39.724;2022-12-10T01:04:41;10.43;;;4.65;;
75651;SDS011;64248;43.602;39.724;2022-12-10T01:07:07;8.20;;;4.32;;
75651;SDS011;64248;43.602;39.724;2022-12-10T01:09:35;9.38;;;4.20;;
75651;SDS011;64248;43.602;39.724;2022-12-10T01:12:02;10.13;;;4.47;;
75651;SDS011;64248;43.602;39.724;2022-12-10T01:14:30;8.30;;;4.93;;
75651;SDS011;64248;43.602;39.724;2022-12-10T01:16:58;6.68;;;3.85;;
75651;SDS011;64248;43.602;39.724;2022-12-10T01:19:27;9.35;;;4.22;;
75651;SDS011;64248;43.602;39.724;2022-12-10T01:21:54;11.43;;;4.10;;
75651;SDS011;64248;43.602;39.724;2022-12-10T01:24:21;8.15;;;3.63;;
75651;SDS011;64248;43.602;39.724;2022-12-10T01:26:48;7.95;;;4.10;;
75651;SDS011;64248;43.602;39.724;2022-12-10T01:29:14;6.82;;;3.40;;
75651;SDS011;64248;43.602;39.724;2022-12-10T01:31:40;9.32;;;4.10;;
75651;SDS011;64248;43.602;39.724;2022-12-10T01:34:07;8.77;;;3.83;;
75651;SDS011;64248;43.602;39.724;2022-12-10T01:36:44;7.65;;;4.15;;
75651;SDS011;64248;43.602;39.724;2022-12-10T01:39:14;7.55;;;3.83;;
75651;SDS011;64248;43.602;39.724;2022-12-10T01:41:43;10.02;;;4.53;;
75651;SDS011;64248;43.602;39.724;2022-12-10T01:46:44;8.20;;;3.80;;
75651;SDS011;64248;43.602;39.724;2022-12-10T01:49:16;11.18;;;4.28;;
75651;SDS011;64248;43.602;39.724;2022-12-10T01:51:46;8.95;;;5.32;;
75651;SDS011;64248;43.602;39.724;2022-12-10T01:54:15;17.25;;;5.47;;
75651;SDS011;64248;43.602;39.724;2022-12-10T01:56:46;8.45;;;4.03;;
75651;SDS011;64248;43.602;39.724;2022-12-10T01:59:17;7.60;;;4.18;;
75651;SDS011;64248;43.602;39.724;2022-12-10T02:06:53;8.00;;;3.67;;
75651;SDS011;64248;43.602;39.724;2022-12-10T02:19:55;6.93;;;3.80;;
75651;SDS011;64248;43.602;39.724;2022-12-10T02:22:26;8.30;;;3.55;;
75651;SDS011;64248;43.602;39.724;2022-12-10T02:24:57;8.05;;;4.18;;
75651;SDS011;64248;43.602;39.724;2022-12-10T02:27:32;5.88;;;3.53;;
75651;SDS011;64248;43.602;39.724;2022-12-10T02:30:21;9.90;;;5.10;;
75651;SDS011;64248;43.602;39.724;2022-12-10T02:32:47;9.77;;;4.80;;
75651;SDS011;64248;43.602;39.724;2022-12-10T02:35:22;9.00;;;3.63;;
75651;SDS011;64248;43.602;39.724;2022-12-10T02:37:53;7.32;;;3.42;;
75651;SDS011;64248;43.602;39.724;2022-12-10T02:40:26;10.43;;;4.10;;
75651;SDS011;64248;43.602;39.724;2022-12-10T02:42:58;7.20;;;3.58;;
75651;SDS011;64248;43.602;39.724;2022-12-10T02:45:25;6.32;;;3.42;;
75651;SDS011;64248;43.602;39.724;2022-12-10T02:47:54;6.90;;;3.90;;
75651;SDS011;64248;43.602;39.724;2022-12-10T02:50:24;8.05;;;3.70;;
75651;SDS011;64248;43.602;39.724;2022-12-10T02:52:51;8.73;;;4.32;;
75651;SDS011;64248;43.602;39.724;2022-12-10T02:55:18;11.27;;;4.25;;
75651;SDS011;64248;43.602;39.724;2022-12-10T02:58:02;8.50;;;4.05;;
75651;SDS011;64248;43.602;39.724;2022-12-10T03:01:25;8.25;;;4.18;;
75651;SDS011;64248;43.602;39.724;2022-12-10T03:04:01;8.13;;;4.35;;
75651;SDS011;64248;43.602;39.724;2022-12-10T03:06:38;7.70;;;3.40;;
75651;SDS011;64248;43.602;39.724;2022-12-10T03:09:12;10.18;;;4.85;;
75651;SDS011;64248;43.602;39.724;2022-12-10T03:11:53;8.88;;;4.43;;
75651;SDS011;64248;43.602;39.724;2022-12-10T03:14:26;7.05;;;3.70;;
75651;SDS011;64248;43.602;39.724;2022-12-10T03:16:58;10.63;;;4.13;;
75651;SDS011;64248;43.602;39.724;2022-12-10T03:19:30;7.97;;;3.42;;
75651;SDS011;64248;43.602;39.724;2022-12-10T03:22:02;8.55;;;3.90;;
75651;SDS011;64248;43.602;39.724;2022-12-10T03:24:30;9.75;;;4.47;;
75651;SDS011;64248;43.602;39.724;2022-12-10T03:26:58;10.68;;;3.90;;
75651;SDS011;64248;43.602;39.724;2022-12-10T03:29:26;6.10;;;3.40;;
75651;SDS011;64248;43.602;39.724;2022-12-10T03:31:56;8.35;;;4.15;;
75651;SDS011;64248;43.602;39.724;2022-12-10T03:34:24;9.25;;;4.05;;
75651;SDS011;64248;43.602;39.724;2022-12-10T03:36:50;8.38;;;4.10;;
75651;SDS011;64248;43.602;39.724;2022-12-10T03:39:17;8.15;;;4.63;;
75651;SDS011;64248;43.602;39.724;2022-12-10T03:41:43;9.32;;;3.63;;
75651;SDS011;64248;43.602;39.724;2022-12-10T03:44:09;8.55;;;4.25;;
75651;SDS011;64248;43.602;39.724;2022-12-10T03:46:34;8.63;;;3.92;;
75651;SDS011;64248;43.602;39.724;2022-12-10T03:49:01;7.90;;;3.55;;
75651;SDS011;64248;43.602;39.724;2022-12-10T03:51:27;12.95;;;4.20;;
75651;SDS011;64248;43.602;39.724;2022-12-10T03:53:54;10.07;;;3.97;;
75651;SDS011;64248;43.602;39.724;2022-12-10T03:56:20;9.55;;;4.38;;
75651;SDS011;64248;43.602;39.724;2022-12-10T03:58:47;8.30;;;3.65;;
75651;SDS011;64248;43.602;39.724;2022-12-10T04:01:13;14.45;;;5.20;;
75651;SDS011;64248;43.602;39.724;2022-12-10T04:03:40;7.60;;;4.00;;
75651;SDS011;64248;43.602;39.724;2022-12-10T04:06:08;7.07;;;3.65;;
75651;SDS011;64248;43.602;39.724;2022-12-10T04:08:44;7.90;;;4.15;;
75651;SDS011;64248;43.602;39.724;2022-12-10T04:11:12;10.32;;;3.95;;
75651;SDS011;64248;43.602;39.724;2022-12-10T04:13:39;8.77;;;4.18;;
75651;SDS011;64248;43.602;39.724;2022-12-10T04:16:24;9.98;;;4.57;;
75651;SDS011;64248;43.602;39.724;2022-12-10T04:18:55;9.65;;;4.28;;
75651;SDS011;64248;43.602;39.724;2022-12-10T04:21:29;7.82;;;4.07;;
75651;SDS011;64248;43.602;39.724;2022-12-10T04:24:16;7.65;;;3.45;;
75651;SDS011;64248;43.602;39.724;2022-12-10T04:27:04;9.55;;;5.28;;
75651;SDS011;64248;43.602;39.724;2022-12-10T04:29:33;10.60;;;4.40;;
75651;SDS011;64248;43.602;39.724;2022-12-10T04:31:59;11.75;;;5.00;;
75651;SDS011;64248;43.602;39.724;2022-12-10T04:34:25;7.47;;;3.88;;
75651;SDS011;64248;43.602;39.724;2022-12-10T04:36:51;10.13;;;4.35;;
75651;SDS011;64248;43.602;39.724;2022-12-10T04:39:18;7.57;;;4.03;;
75651;SDS011;64248;43.602;39.724;2022-12-10T04:41:45;15.82;;;3.65;;
75651;SDS011;64248;43.602;39.724;2022-12-10T04:44:12;9.02;;;4.18;;
75651;SDS011;64248;43.602;39.724;2022-12-10T04:46:38;10.00;;;5.28;;
75651;SDS011;64248;43.602;39.724;2022-12-10T04:49:04;10.98;;;4.93;;
75651;SDS011;64248;43.602;39.724;2022-12-10T04:51:31;13.43;;;4.55;;
75651;SDS011;64248;43.602;39.724;2022-12-10T04:53:57;10.88;;;4.47;;
75651;SDS011;64248;43.602;39.724;2022-12-10T04:56:24;10.38;;;5.13;;
75651;SDS011;64248;43.602;39.724;2022-12-10T04:58:50;9.57;;;4.72;;
75651;SDS011;64248;43.602;39.724;2022-12-10T05:01:16;11.98;;;5.28;;
75651;SDS011;64248;43.602;39.724;2022-12-10T05:03:44;15.85;;;5.60;;
75651;SDS011;64248;43.602;39.724;2022-12-10T05:06:11;12.60;;;5.47;;
75651;SDS011;64248;43.602;39.724;2022-12-10T05:08:38;13.13;;;6.22;;
75651;SDS011;64248;43.602;39.724;2022-12-10T05:11:06;16.45;;;5.97;;
75651;SDS011;64248;43.602;39.724;2022-12-10T05:13:40;15.70;;;5.78;;
75651;SDS011;64248;43.602;39.724;2022-12-10T05:16:07;12.63;;;6.22;;
75651;SDS011;64248;43.602;39.724;2022-12-10T05:18:35;14.18;;;5.68;;
75651;SDS011;64248;43.602;39.724;2022-12-10T05:21:02;11.73;;;5.63;;
75651;SDS011;64248;43.602;39.724;2022-12-10T05:23:31;13.63;;;5.53;;
75651;SDS011;64248;43.602;39.724;2022-12-10T05:31:05;13.98;;;5.30;;
75651;SDS011;64248;43.602;39.724;2022-12-10T05:33:36;15.05;;;5.35;;
75651;SDS011;64248;43.602;39.724;2022-12-10T05:36:03;14.45;;;6.43;;
75651;SDS011;64248;43.602;39.724;2022-12-10T05:38:29;15.73;;;6.45;;
75651;SDS011;64248;43.602;39.724;2022-12-10T05:41:01;13.32;;;5.35;;
75651;SDS011;64248;43.602;39.724;2022-12-10T05:43:28;14.02;;;6.80;;
75651;SDS011;64248;43.602;39.724;2022-12-10T05:45:54;15.55;;;5.70;;
75651;SDS011;64248;43.602;39.724;2022-12-10T05:48:25;13.15;;;5.93;;
75651;SDS011;64248;43.602;39.724;2022-12-10T05:50:50;18.42;;;5.35;;
75651;SDS011;64248;43.602;39.724;2022-12-10T05:53:17;14.27;;;6.05;;
75651;SDS011;64248;43.602;39.724;2022-12-10T05:55:43;13.85;;;5.60;;
75651;SDS011;64248;43.602;39.724;2022-12-10T05:58:09;15.27;;;6.65;;
75651;SDS011;64248;43.602;39.724;2022-12-10T06:00:38;11.27;;;5.68;;
75651;SDS011;64248;43.602;39.724;2022-12-10T06:03:06;11.10;;;5.75;;
75651;SDS011;64248;43.602;39.724;2022-12-10T06:05:36;12.82;;;5.07;;
75651;SDS011;64248;43.602;39.724;2022-12-10T06:08:05;11.07;;;5.20;;
75651;SDS011;64248;43.602;39.724;2022-12-10T06:10:34;12.13;;;5.72;;
75651;SDS011;64248;43.602;39.724;2022-12-10T06:13:02;10.25;;;5.72;;
75651;SDS011;64248;43.602;39.724;2022-12-10T06:15:28;18.13;;;6.43;;
75651;SDS011;64248;43.602;39.724;2022-12-10T06:17:55;10.88;;;6.07;;
75651;SDS011;64248;43.602;39.724;2022-12-10T06:20:22;14.15;;;5.88;;
75651;SDS011;64248;43.602;39.724;2022-12-10T06:22:51;14.05;;;5.78;;
75651;SDS011;64248;43.602;39.724;2022-12-10T06:25:17;14.10;;;5.63;;
75651;SDS011;64248;43.602;39.724;2022-12-10T06:27:43;20.83;;;6.88;;
75651;SDS011;64248;43.602;39.724;2022-12-10T06:30:10;14.10;;;7.70;;
75651;SDS011;64248;43.602;39.724;2022-12-10T06:32:36;13.50;;;6.15;;
75651;SDS011;64248;43.602;39.724;2022-12-10T06:35:03;14.00;;;6.85;;
75651;SDS011;64248;43.602;39.724;2022-12-10T06:37:29;14.48;;;5.85;;
75651;SDS011;64248;43.602;39.724;2022-12-10T06:39:55;10.93;;;5.13;;
75651;SDS011;64248;43.602;39.724;2022-12-10T06:42:21;11.05;;;5.53;;
75651;SDS011;64248;43.602;39.724;2022-12-10T06:44:50;11.13;;;5.38;;
75651;SDS011;64248;43.602;39.724;2022-12-10T06:47:16;9.65;;;5.50;;
75651;SDS011;64248;43.602;39.724;2022-12-10T06:49:42;11.75;;;4.75;;
75651;SDS011;64248;43.602;39.724;2022-12-10T06:52:08;12.57;;;5.60;;
75651;SDS011;64248;43.602;39.724;2022-12-10T06:54:34;10.82;;;5.82;;
75651;SDS011;64248;43.602;39.724;2022-12-10T06:57:00;13.48;;;5.90;;
75651;SDS011;64248;43.602;39.724;2022-12-10T06:59:25;11.02;;;5.35;;
75651;SDS011;64248;43.602;39.724;2022-12-10T07:01:51;11.82;;;5.47;;
75651;SDS011;64248;43.602;39.724;2022-12-10T07:04:17;11.43;;;5.97;;
75651;SDS011;64248;43.602;39.724;2022-12-10T07:06:43;9.77;;;5.00;;
75651;SDS011;64248;43.602;39.724;2022-12-10T07:09:09;13.27;;;5.50;;
75651;SDS011;64248;43.602;39.724;2022-12-10T07:11:35;9.13;;;4.63;;
75651;SDS011;64248;43.602;39.724;2022-12-10T07:14:01;11.63;;;6.38;;
75651;SDS011;64248;43.602;39.724;2022-12-10T07:16:28;13.90;;;6.13;;
75651;SDS011;64248;43.602;39.724;2022-12-10T07:18:56;11.35;;;4.82;;
75651;SDS011;64248;43.602;39.724;2022-12-10T07:23:51;10.50;;;5.10;;
75651;SDS011;64248;43.602;39.724;2022-12-10T07:26:25;12.30;;;5.25;;
75651;SDS011;64248;43.602;39.724;2022-12-10T07:28:54;10.65;;;5.00;;
75651;SDS011;64248;43.602;39.724;2022-12-10T07:31:20;9.73;;;4.85;;
75651;SDS011;64248;43.602;39.724;2022-12-10T07:33:47;10.32;;;5.72;;
75651;SDS011;64248;43.602;39.724;2022-12-10T07:36:14;13.20;;;6.18;;
75651;SDS011;64248;43.602;39.724;2022-12-10T07:38:40;14.27;;;6.35;;
75651;SDS011;64248;43.602;39.724;2022-12-10T07:41:06;12.32;;;6.47;;
75651;SDS011;64248;43.602;39.724;2022-12-10T07:43:35;13.65;;;6.45;;
75651;SDS011;64248;43.602;39.724;2022-12-10T07:46:05;12.65;;;6.60;;
75651;SDS011;64248;43.602;39.724;2022-12-10T07:48:40;13.65;;;7.25;;
75651;SDS011;64248;43.602;39.724;2022-12-10T07:51:09;12.27;;;6.07;;
75651;SDS011;64248;43.602;39.724;2022-12-10T07:53:35;15.35;;;5.80;;
75651;SDS011;64248;43.602;39.724;2022-12-10T07:56:02;13.00;;;6.50;;
75651;SDS011;64248;43.602;39.724;2022-12-10T07:58:28;14.77;;;6.03;;
75651;SDS011;64248;43.602;39.724;2022-12-10T08:00:54;11.93;;;5.43;;
75651;SDS011;64248;43.602;39.724;2022-12-10T08:03:20;9.65;;;4.45;;
75651;SDS011;64248;43.602;39.724;2022-12-10T08:05:46;10.98;;;6.95;;
75651;SDS011;64248;43.602;39.724;2022-12-10T08:08:12;12.82;;;5.22;;
75651;SDS011;64248;43.602;39.724;2022-12-10T08:10:38;9.00;;;4.68;;
75651;SDS011;64248;43.602;39.724;2022-12-10T08:13:04;13.13;;;6.70;;
75651;SDS011;64248;43.602;39.724;2022-12-10T08:15:31;11.95;;;5.80;;
75651;SDS011;64248;43.602;39.724;2022-12-10T08:17:57;14.20;;;7.00;;
75651;SDS011;64248;43.602;39.724;2022-12-10T08:20:23;14.05;;;5.82;;
75651;SDS011;64248;43.602;39.724;2022-12-10T08:22:50;11.93;;;6.22;;
75651;SDS011;64248;43.602;39.724;2022-12-10T08:25:16;14.15;;;6.80;;
75651;SDS011;64248;43.602;39.724;2022-12-10T08:27:42;13.15;;;6.68;;
75651;SDS011;64248;43.602;39.724;2022-12-10T08:30:08;10.48;;;5.80;;
75651;SDS011;64248;43.602;39.724;2022-12-10T08:32:35;9.32;;;6.30;;
75651;SDS011;64248;43.602;39.724;2022-12-10T08:35:01;9.23;;;5.97;;
75651;SDS011;64248;43.602;39.724;2022-12-10T08:37:27;12.65;;;6.75;;
75651;SDS011;64248;43.602;39.724;2022-12-10T08:39:52;12.70;;;7.22;;
75651;SDS011;64248;43.602;39.724;2022-12-10T08:42:18;14.25;;;7.57;;
75651;SDS011;64248;43.602;39.724;2022-12-10T08:44:45;12.98;;;6.18;;
75651;SDS011;64248;43.602;39.724;2022-12-10T08:47:11;13.30;;;6.78;;
75651;SDS011;64248;43.602;39.724;2022-12-10T08:49:36;12.55;;;6.72;;
75651;SDS011;64248;43.602;39.724;2022-12-10T08:52:02;14.35;;;7.15;;
75651;SDS011;64248;43.602;39.724;2022-12-10T08:54:28;13.30;;;6.20;;
75651;SDS011;64248;43.602;39.724;2022-12-10T08:56:54;14.75;;;6.40;;
75651;SDS011;64248;43.602;39.724;2022-12-10T08:59:20;12.15;;;7.10;;
75651;SDS011;64248;43.602;39.724;2022-12-10T09:01:46;12.68;;;6.40;;
75651;SDS011;64248;43.602;39.724;2022-12-10T09:04:12;11.88;;;6.38;;
75651;SDS011;64248;43.602;39.724;2022-12-10T09:06:38;11.63;;;6.75;;
75651;SDS011;64248;43.602;39.724;2022-12-10T09:09:04;12.60;;;6.43;;
75651;SDS011;64248;43.602;39.724;2022-12-10T09:11:33;10.75;;;6.55;;
75651;SDS011;64248;43.602;39.724;2022-12-10T09:14:00;11.80;;;5.85;;
75651;SDS011;64248;43.602;39.724;2022-12-10T09:16:34;12.43;;;6.35;;
75651;SDS011;64248;43.602;39.724;2022-12-10T09:19:02;10.55;;;6.28;;
75651;SDS011;64248;43.602;39.724;2022-12-10T09:21:29;12.32;;;5.85;;
75651;SDS011;64248;43.602;39.724;2022-12-10T09:23:58;9.80;;;5.60;;
75651;SDS011;64248;43.602;39.724;2022-12-10T09:26:24;8.57;;;4.93;;
75651;SDS011;64248;43.602;39.724;2022-12-10T09:28:53;10.48;;;5.70;;
75651;SDS011;64248;43.602;39.724;2022-12-10T09:31:29;11.02;;;6.28;;
75651;SDS011;64248;43.602;39.724;2022-12-10T09:33:56;11.82;;;7.05;;
75651;SDS011;64248;43.602;39.724;2022-12-10T09:36:22;11.85;;;6.40;;
75651;SDS011;64248;43.602;39.724;2022-12-10T09:38:48;18.88;;;8.65;;
75651;SDS011;64248;43.602;39.724;2022-12-10T09:44:37;11.88;;;6.35;;
75651;SDS011;64248;43.602;39.724;2022-12-10T09:47:18;12.85;;;7.20;;
75651;SDS011;64248;43.602;39.724;2022-12-10T09:52:33;9.05;;;6.25;;
75651;SDS011;64248;43.602;39.724;2022-12-10T09:55:12;10.30;;;5.55;;
75651;SDS011;64248;43.602;39.724;2022-12-10T09:57:42;11.93;;;6.80;;
75651;SDS011;64248;43.602;39.724;2022-12-10T10:02:50;10.98;;;5.80;;
75651;SDS011;64248;43.602;39.724;2022-12-10T10:08:33;13.30;;;6.00;;
75651;SDS011;64248;43.602;39.724;2022-12-10T10:10:42;11.77;;;5.60;;
75651;SDS011;64248;43.602;39.724;2022-12-10T10:15:54;10.18;;;5.75;;
75651;SDS011;64248;43.602;39.724;2022-12-10T10:18:28;9.32;;;5.72;;
75651;SDS011;64248;43.602;39.724;2022-12-10T10:21:03;9.45;;;5.43;;
75651;SDS011;64248;43.602;39.724;2022-12-10T10:23:32;9.75;;;5.45;;
75651;SDS011;64248;43.602;39.724;2022-12-10T10:25:58;10.00;;;6.03;;
75651;SDS011;64248;43.602;39.724;2022-12-10T10:28:25;9.38;;;5.68;;
75651;SDS011;64248;43.602;39.724;2022-12-10T10:30:53;10.15;;;5.88;;
75651;SDS011;64248;43.602;39.724;2022-12-10T10:33:19;11.20;;;5.93;;
75651;SDS011;64248;43.602;39.724;2022-12-10T10:36:03;9.30;;;5.15;;
75651;SDS011;64248;43.602;39.724;2022-12-10T10:38:30;9.48;;;5.13;;
75651;SDS011;64248;43.602;39.724;2022-12-10T10:41:00;10.63;;;5.65;;
75651;SDS011;64248;43.602;39.724;2022-12-10T10:48:39;10.00;;;4.38;;
75651;SDS011;64248;43.602;39.724;2022-12-10T10:51:13;11.23;;;5.53;;
75651;SDS011;64248;43.602;39.724;2022-12-10T10:56:18;7.25;;;4.75;;
75651;SDS011;64248;43.602;39.724;2022-12-10T11:01:21;13.13;;;5.38;;
75651;SDS011;64248;43.602;39.724;2022-12-10T11:03:53;8.20;;;4.95;;
75651;SDS011;64248;43.602;39.724;2022-12-10T11:06:21;14.57;;;4.95;;
75651;SDS011;64248;43.602;39.724;2022-12-10T11:08:47;11.52;;;5.28;;
75651;SDS011;64248;43.602;39.724;2022-12-10T11:11:19;10.48;;;4.95;;
75651;SDS011;64248;43.602;39.724;2022-12-10T11:14:29;12.95;;;5.32;;
75651;SDS011;64248;43.602;39.724;2022-12-10T11:17:03;8.15;;;5.22;;
75651;SDS011;64248;43.602;39.724;2022-12-10T11:20:23;10.27;;;5.35;;
75651;SDS011;64248;43.602;39.724;2022-12-10T11:22:50;8.38;;;4.47;;
75651;SDS011;64248;43.602;39.724;2022-12-10T11:25:35;9.38;;;5.00;;
75651;SDS011;64248;43.602;39.724;2022-12-10T11:31:13;10.40;;;4.88;;
75651;SDS011;64248;43.602;39.724;2022-12-10T11:36:54;7.50;;;5.00;;
75651;SDS011;64248;43.602;39.724;2022-12-10T11:45:31;7.85;;;4.15;;
75651;SDS011;64248;43.602;39.724;2022-12-10T11:51:32;8.32;;;4.32;;
75651;SDS011;64248;43.602;39.724;2022-12-10T12:05:34;10.40;;;4.57;;
75651;SDS011;64248;43.602;39.724;2022-12-10T12:08:14;8.00;;;3.53;;
75651;SDS011;64248;43.602;39.724;2022-12-10T12:13:22;8.77;;;3.97;;
75651;SDS011;64248;43.602;39.724;2022-12-10T12:18:39;10.50;;;6.55;;
75651;SDS011;64248;43.602;39.724;2022-12-10T12:21:11;6.95;;;4.43;;
75651;SDS011;64248;43.602;39.724;2022-12-10T12:23:43;6.85;;;3.70;;
75651;SDS011;64248;43.602;39.724;2022-12-10T12:29:08;8.63;;;3.90;;
75651;SDS011;64248;43.602;39.724;2022-12-10T12:31:35;7.13;;;4.25;;
75651;SDS011;64248;43.602;39.724;2022-12-10T12:37:21;13.88;;;4.10;;
75651;SDS011;64248;43.602;39.724;2022-12-10T12:42:46;9.30;;;4.78;;
75651;SDS011;64248;43.602;39.724;2022-12-10T12:45:21;9.50;;;3.50;;
75651;SDS011;64248;43.602;39.724;2022-12-10T12:48:06;6.50;;;3.65;;
75651;SDS011;64248;43.602;39.724;2022-12-10T12:51:06;7.50;;;3.80;;
75651;SDS011;64248;43.602;39.724;2022-12-10T12:53:42;7.28;;;3.45;;
75651;SDS011;64248;43.602;39.724;2022-12-10T12:59:02;6.88;;;3.20;;
75651;SDS011;64248;43.602;39.724;2022-12-10T13:02:06;6.45;;;3.15;;
75651;SDS011;64248;43.602;39.724;2022-12-10T13:04:36;9.23;;;3.58;;
75651;SDS011;64248;43.602;39.724;2022-12-10T13:09:47;7.82;;;3.72;;
75651;SDS011;64248;43.602;39.724;2022-12-10T13:12:44;5.70;;;3.13;;
75651;SDS011;64248;43.602;39.724;2022-12-10T13:15:17;7.45;;;3.75;;
75651;SDS011;64248;43.602;39.724;2022-12-10T13:18:03;10.93;;;4.32;;
75651;SDS011;64248;43.602;39.724;2022-12-10T13:20:47;7.78;;;4.07;;
75651;SDS011;64248;43.602;39.724;2022-12-10T13:38:57;8.48;;;4.20;;
75651;SDS011;64248;43.602;39.724;2022-12-10T13:41:41;7.18;;;4.25;;
75651;SDS011;64248;43.602;39.724;2022-12-10T13:44:47;10.07;;;4.40;;
75651;SDS011;64248;43.602;39.724;2022-12-10T13:49:53;7.38;;;4.70;;
75651;SDS011;64248;43.602;39.724;2022-12-10T13:52:32;16.10;;;5.32;;
75651;SDS011;64248;43.602;39.724;2022-12-10T14:06:19;11.70;;;4.63;;
75651;SDS011;64248;43.602;39.724;2022-12-10T14:11:23;12.63;;;5.15;;
75651;SDS011;64248;43.602;39.724;2022-12-10T14:13:57;10.38;;;5.10;;
75651;SDS011;64248;43.602;39.724;2022-12-10T14:16:26;12.60;;;5.05;;
75651;SDS011;64248;43.602;39.724;2022-12-10T14:18:59;11.48;;;5.22;;
75651;SDS011;64248;43.602;39.724;2022-12-10T14:21:35;14.18;;;5.93;;
75651;SDS011;64248;43.602;39.724;2022-12-10T14:24:04;11.32;;;5.50;;
75651;SDS011;64248;43.602;39.724;2022-12-10T14:26:35;14.48;;;6.35;;
75651;SDS011;64248;43.602;39.724;2022-12-10T14:29:22;18.70;;;8.07;;
75651;SDS011;64248;43.602;39.724;2022-12-10T14:31:49;25.77;;;9.43;;
75651;SDS011;64248;43.602;39.724;2022-12-10T14:34:21;53.00;;;19.10;;
75651;SDS011;64248;43.602;39.724;2022-12-10T14:36:52;26.63;;;12.38;;
75651;SDS011;64248;43.602;39.724;2022-12-10T14:39:28;32.97;;;12.52;;
75651;SDS011;64248;43.602;39.724;2022-12-10T14:41:57;40.88;;;14.02;;
75651;SDS011;64248;43.602;39.724;2022-12-10T14:44:28;32.97;;;16.00;;
75651;SDS011;64248;43.602;39.724;2022-12-10T14:47:10;39.35;;;18.27;;
75651;SDS011;64248;43.602;39.724;2022-12-10T14:49:38;42.97;;;18.25;;
75651;SDS011;64248;43.602;39.724;2022-12-10T14:52:13;38.33;;;17.05;;
75651;SDS011;64248;43.602;39.724;2022-12-10T14:54:42;42.25;;;18.45;;
75651;SDS011;64248;43.602;39.724;2022-12-10T14:57:13;43.90;;;19.15;;
75651;SDS011;64248;43.602;39.724;2022-12-10T15:02:36;38.97;;;18.40;;
75651;SDS011;64248;43.602;39.724;2022-12-10T15:05:13;36.55;;;18.00;;
75651;SDS011;64248;43.602;39.724;2022-12-10T15:07:43;37.47;;;18.75;;
75651;SDS011;64248;43.602;39.724;2022-12-10T15:10:23;35.97;;;16.67;;
75651;SDS011;64248;43.602;39.724;2022-12-10T15:12:55;39.47;;;17.20;;
75651;SDS011;64248;43.602;39.724;2022-12-10T15:15:24;39.60;;;17.13;;
75651;SDS011;64248;43.602;39.724;2022-12-10T15:28:22;37.47;;;16.95;;
75651;SDS011;64248;43.602;39.724;2022-12-10T15:31:08;39.53;;;16.17;;
75651;SDS011;64248;43.602;39.724;2022-12-10T15:33:57;41.47;;;16.20;;
75651;SDS011;64248;43.602;39.724;2022-12-10T15:36:34;32.75;;;16.13;;
75651;SDS011;64248;43.602;39.724;2022-12-10T15:41:40;31.00;;;17.75;;
75651;SDS011;64248;43.602;39.724;2022-12-10T15:44:19;30.98;;;15.25;;
75651;SDS011;64248;43.602;39.724;2022-12-10T15:47:12;34.67;;;14.77;;
75651;SDS011;64248;43.602;39.724;2022-12-10T15:49:45;26.77;;;15.20;;
75651;SDS011;64248;43.602;39.724;2022-12-10T15:52:12;32.38;;;16.25;;
75651;SDS011;64248;43.602;39.724;2022-12-10T15:54:44;24.30;;;13.70;;
75651;SDS011;64248;43.602;39.724;2022-12-10T15:57:18;28.23;;;14.07;;
75651;SDS011;64248;43.602;39.724;2022-12-10T15:59:47;33.30;;;13.77;;
75651;SDS011;64248;43.602;39.724;2022-12-10T16:07:36;23.90;;;12.98;;
75651;SDS011;64248;43.602;39.724;2022-12-10T16:10:03;26.45;;;13.32;;
75651;SDS011;64248;43.602;39.724;2022-12-10T16:12:29;25.63;;;12.55;;
75651;SDS011;64248;43.602;39.724;2022-12-10T16:14:58;21.48;;;10.88;;
75651;SDS011;64248;43.602;39.724;2022-12-10T16:17:27;22.42;;;11.02;;
75651;SDS011;64248;43.602;39.724;2022-12-10T16:19:56;23.55;;;10.77;;
75651;SDS011;64248;43.602;39.724;2022-12-10T16:22:24;35.80;;;11.30;;
75651;SDS011;64248;43.602;39.724;2022-12-10T16:24:50;21.10;;;11.07;;
75651;SDS011;64248;43.602;39.724;2022-12-10T16:27:16;22.83;;;11.20;;
75651;SDS011;64248;43.602;39.724;2022-12-10T16:29:42;19.90;;;10.88;;
75651;SDS011;64248;43.602;39.724;2022-12-10T16:32:09;22.55;;;10.50;;
75651;SDS011;64248;43.602;39.724;2022-12-10T16:34:36;21.45;;;10.25;;
75651;SDS011;64248;43.602;39.724;2022-12-10T16:37:02;25.88;;;10.25;;
75651;SDS011;64248;43.602;39.724;2022-12-10T16:39:29;22.05;;;9.65;;
75651;SDS011;64248;43.602;39.724;2022-12-10T16:41:55;21.77;;;10.70;;
75651;SDS011;64248;43.602;39.724;2022-12-10T16:44:21;22.30;;;10.32;;
75651;SDS011;64248;43.602;39.724;2022-12-10T16:46:47;19.48;;;9.73;;
75651;SDS011;64248;43.602;39.724;2022-12-10T16:49:13;19.02;;;9.30;;
75651;SDS011;64248;43.602;39.724;2022-12-10T16:51:41;22.35;;;9.13;;
75651;SDS011;64248;43.602;39.724;2022-12-10T16:54:09;21.48;;;9.25;;
75651;SDS011;64248;43.602;39.724;2022-12-10T16:59:04;19.02;;;8.05;;
75651;SDS011;64248;43.602;39.724;2022-12-10T17:01:30;20.23;;;8.20;;
75651;SDS011;64248;43.602;39.724;2022-12-10T17:03:56;19.73;;;8.02;;
75651;SDS011;64248;43.602;39.724;2022-12-10T17:06:23;16.35;;;6.80;;
75651;SDS011;64248;43.602;39.724;2022-12-10T17:08:50;25.75;;;10.13;;
75651;SDS011;64248;43.602;39.724;2022-12-10T17:11:27;17.63;;;8.63;;
75651;SDS011;64248;43.602;39.724;2022-12-10T17:16:49;16.63;;;7.45;;